Time;durP1;ratioP1;P1;durP2;ratioP2;P2;SDS_P1;SDS_P2;PMS_P1;PMS_P2;Temp;Humidity;BMP_temperature;BMP_pressure;BME280_temperature;BME280_humidity;BME280_pressure;Samples;Min_cycle;Max_cycle;Signal;HPM_P1;HPM_P2
2022/12/21 00:02:05;;;;;;;49.83;23.38;;;;;;;2.95;76.38;100581.66;6179919;23;20450;-72
2022/12/21 00:04:32;;;;;;;55.08;24.10;;;;;;;2.94;76.35;100582.63;6182410;23;20060;-73
2022/12/21 00:06:59;;;;;;;55.05;25.10;;;;;;;2.80;76.85;100578.34;6183131;23;20100;-74
2022/12/21 00:09:26;;;;;;;54.08;23.48;;;;;;;2.75;77.01;100575.19;6156576;23;20405;-73
2022/12/21 00:11:52;;;;;;;51.90;24.30;;;;;;;2.79;77.20;100575.81;6179515;23;20087;-72
2022/12/21 00:14:19;;;;;;;60.38;25.70;;;;;;;2.88;77.22;100572.47;6181328;23;20409;-74
2022/12/21 00:16:45;;;;;;;50.90;24.77;;;;;;;2.67;77.95;100564.31;6182182;23;20092;-73
2022/12/21 00:19:16;;;;;;;53.75;24.77;;;;;;;2.70;78.25;100565.91;6181771;23;20017;-74
2022/12/21 00:21:43;;;;;;;51.63;25.80;;;;;;;2.70;78.14;100558.81;6181557;23;20021;-73
2022/12/21 00:24:09;;;;;;;56.08;26.02;;;;;;;2.73;78.46;100555.94;6181062;23;20051;-74
2022/12/21 00:26:37;;;;;;;58.00;24.42;;;;;;;2.87;77.88;100555.75;6182468;23;20099;-74
2022/12/21 00:29:05;;;;;;;52.40;24.73;;;;;;;2.85;78.29;100552.34;6181972;23;20021;-71
2022/12/21 00:31:34;;;;;;;51.83;24.13;;;;;;;2.86;77.81;100554.06;6182402;23;20096;-73
2022/12/21 00:34:01;;;;;;;53.42;25.48;;;;;;;2.65;78.16;100545.03;6182301;23;20116;-74
2022/12/21 00:36:29;;;;;;;50.28;23.50;;;;;;;2.68;77.89;100550.13;6180651;23;20350;-73
2022/12/21 00:38:56;;;;;;;58.72;26.27;;;;;;;2.80;78.51;100543.06;6182434;23;20044;-72
2022/12/21 00:41:26;;;;;;;54.72;24.55;;;;;;;2.74;78.46;100544.38;6181633;23;20036;-74
2022/12/21 00:43:54;;;;;;;62.03;26.25;;;;;;;2.93;77.72;100542.97;6177185;23;20025;-73
2022/12/21 00:46:27;;;;;;;51.70;25.40;;;;;;;2.71;78.77;100539.28;6177922;23;20052;-73
2022/12/21 00:48:55;;;;;;;50.45;24.73;;;;;;;2.76;77.74;100544.28;6181060;23;20021;-73
2022/12/21 00:51:23;;;;;;;59.30;26.13;;;;;;;2.75;78.15;100548.69;6166672;23;20100;-73
2022/12/21 00:53:51;;;;;;;54.80;25.35;;;;;;;2.77;77.85;100552.09;6181498;23;20096;-74
2022/12/21 00:56:18;;;;;;;53.13;25.55;;;;;;;2.83;78.37;100548.16;6181973;23;20025;-74
2022/12/21 00:58:44;;;;;;;61.78;27.83;;;;;;;2.63;78.22;100534.56;6181963;23;20021;-73
2022/12/21 01:01:15;;;;;;;50.10;25.50;;;;;;;2.70;77.74;100544.72;6180416;23;20044;-72
2022/12/21 01:03:42;;;;;;;55.75;25.20;;;;;;;2.73;77.72;100534.75;6181386;23;20049;-73
2022/12/21 01:06:14;;;;;;;55.28;26.10;;;;;;;2.81;77.60;100537.66;6179684;23;20027;-72
2022/12/21 01:08:41;;;;;;;50.20;24.60;;;;;;;2.68;77.82;100539.50;6180414;23;20023;-74
2022/12/21 01:11:09;;;;;;;56.33;26.55;;;;;;;2.77;77.79;100541.50;6182159;23;20017;-74
2022/12/21 01:13:37;;;;;;;56.55;26.70;;;;;;;2.80;77.22;100541.25;6181375;23;20100;-73
2022/12/21 01:16:09;;;;;;;55.15;25.85;;;;;;;2.73;77.91;100533.91;6178777;23;20021;-73
2022/12/21 01:18:36;;;;;;;59.17;25.58;;;;;;;2.72;77.71;100537.47;6180666;23;20501;-74
2022/12/21 01:21:02;;;;;;;54.97;25.75;;;;;;;2.69;77.54;100537.75;6182288;23;20048;-73
2022/12/21 01:23:29;;;;;;;58.13;26.30;;;;;;;2.59;77.76;100534.91;6181941;23;20457;-73
2022/12/21 01:25:55;;;;;;;62.10;27.40;;;;;;;2.70;78.20;100537.59;6180362;23;20016;-72
2022/12/21 01:28:22;;;;;;;57.75;26.77;;;;;;;2.61;77.87;100527.69;6182018;23;20044;-72
2022/12/21 01:30:48;;;;;;;57.75;26.98;;;;;;;2.72;77.91;100533.06;6182330;23;20028;-74
2022/12/21 01:33:17;;;;;;;53.20;25.70;;;;;;;2.61;77.64;100519.75;6181655;23;20031;-72
2022/12/21 01:35:45;;;;;;;58.30;26.15;;;;;;;2.71;77.61;100523.41;6181500;23;20021;-70
2022/12/21 01:38:13;;;;;;;56.90;25.83;;;;;;;2.52;78.39;100523.09;6182845;23;20484;-74
2022/12/21 01:40:40;;;;;;;55.50;26.90;;;;;;;2.57;78.48;100520.94;6182874;23;20017;-74
2022/12/21 01:43:18;;;;;;;58.30;27.10;;;;;;;2.68;77.94;100520.97;6182396;23;20017;-73
2022/12/21 01:45:51;;;;;;;58.13;26.02;;;;;;;2.51;78.69;100513.44;6181815;23;20021;-73
2022/12/21 01:48:19;;;;;;;59.20;27.67;;;;;;;2.59;78.44;100519.88;6179992;23;20059;-73
2022/12/21 01:50:51;;;;;;;61.97;27.60;;;;;;;2.70;78.16;100508.47;6181283;23;20040;-74
2022/12/21 01:53:20;;;;;;;58.58;26.23;;;;;;;2.51;78.72;100519.59;6181444;23;20043;-74
2022/12/21 01:55:50;;;;;;;62.72;28.77;;;;;;;2.45;78.76;100525.34;6182978;23;20025;-73
2022/12/21 01:58:18;;;;;;;56.50;26.83;;;;;;;2.52;78.99;100512.50;6184064;23;20094;-70
2022/12/21 02:00:45;;;;;;;58.53;28.45;;;;;;;2.49;79.13;100512.72;6184645;23;20047;-74
2022/12/21 02:03:17;;;;;;;64.13;27.73;;;;;;;2.39;79.97;100516.03;6184324;23;20020;-75
2022/12/21 02:09:33;;;;;;;63.80;28.90;;;;;;;2.54;79.71;100507.91;6181645;23;20086;-75
2022/12/21 02:12:03;;;;;;;60.50;29.13;;;;;;;2.45;80.09;100504.16;6182278;23;20025;-74
2022/12/21 02:14:33;;;;;;;60.42;29.08;;;;;;;2.44;80.39;100497.16;6182760;23;20088;-72
2022/12/21 02:17:31;;;;;;;67.55;30.35;;;;;;;2.54;79.86;100499.97;6183358;23;20024;-74
2022/12/21 02:20:22;;;;;;;62.45;27.73;;;;;;;2.62;79.90;100497.63;6181420;23;20100;-74
2022/12/21 02:23:03;;;;;;;64.43;28.38;;;;;;;2.52;79.85;100500.09;6182189;23;20016;-74
2022/12/21 02:25:48;;;;;;;62.40;27.85;;;;;;;2.45;80.05;100503.31;6182726;23;20100;-75
2022/12/21 02:28:27;;;;;;;64.97;29.30;;;;;;;2.41;79.91;100502.69;6182237;23;20023;-75
2022/12/21 02:31:04;;;;;;;62.03;29.60;;;;;;;2.42;80.37;100499.94;6182730;23;20027;-75
2022/12/21 02:34:14;;;;;;;60.65;29.33;;;;;;;2.39;80.17;100500.16;6182365;23;20025;-75
2022/12/21 02:37:02;;;;;;;64.10;28.70;;;;;;;2.51;80.25;100502.84;6183083;23;20092;-75
2022/12/21 02:40:10;;;;;;;66.97;29.05;;;;;;;2.46;80.90;100494.41;6183079;23;20020;-74
2022/12/21 02:45:45;;;;;;;68.47;28.83;;;;;;;2.62;80.19;100489.69;6182312;23;20025;-74
2022/12/21 02:48:26;;;;;;;67.35;30.65;;;;;;;2.62;79.87;100490.50;6183596;23;20025;-74
2022/12/21 02:50:59;;;;;;;63.35;30.60;;;;;;;2.56;80.01;100488.31;6183409;23;20096;-72
2022/12/21 02:53:33;;;;;;;68.85;31.02;;;;;;;2.35;80.72;100484.63;6182576;23;20099;-74
2022/12/21 02:56:00;;;;;;;71.45;29.05;;;;;;;2.39;79.88;100489.56;6183635;23;20032;-72
2022/12/21 02:58:27;;;;;;;70.13;30.30;;;;;;;2.33;80.40;100476.78;6130891;23;20489;-76
2022/12/21 03:00:59;;;;;;;71.70;30.95;;;;;;;2.29;81.16;100477.13;6124512;23;20096;-74
2022/12/21 03:03:48;;;;;;;74.75;31.45;;;;;;;2.36;81.25;100471.25;6124925;23;20030;-74
2022/12/21 03:06:26;;;;;;;73.30;31.33;;;;;;;2.20;81.02;100470.72;6124598;23;20021;-76
2022/12/21 03:09:12;;;;;;;72.85;31.73;;;;;;;2.36;81.05;100475.72;6124263;23;20412;-72
2022/12/21 03:11:57;;;;;;;67.53;31.48;;;;;;;2.36;80.91;100478.34;6124258;23;20105;-73
2022/12/21 03:14:54;;;;;;;72.95;32.72;;;;;;;2.39;80.84;100478.13;6124893;23;20347;-73
2022/12/21 03:17:50;;;;;;;77.80;32.85;;;;;;;2.32;80.84;100476.91;6124954;23;20029;-75
2022/12/21 03:20:34;;;;;;;75.72;33.05;;;;;;;2.27;80.95;100474.59;6110918;23;20192;-76
2022/12/21 03:23:03;;;;;;;74.90;32.65;;;;;;;2.34;81.39;100473.19;6121614;23;20044;-75
2022/12/21 03:25:47;;;;;;;80.68;32.97;;;;;;;2.35;81.13;100471.38;6124309;23;20147;-74
2022/12/21 03:28:20;;;;;;;65.30;31.88;;;;;;;2.46;80.84;100467.94;6123188;23;20050;-75
2022/12/21 03:30:52;;;;;;;72.53;33.55;;;;;;;2.36;81.06;100473.06;6123862;23;20053;-75
2022/12/21 03:33:23;;;;;;;83.85;33.38;;;;;;;2.28;81.10;100464.84;6125538;23;20026;-75
2022/12/21 03:35:58;;;;;;;79.97;32.80;;;;;;;2.38;81.48;100466.69;6123061;23;20022;-75
2022/12/21 03:38:39;;;;;;;72.65;32.13;;;;;;;2.39;81.46;100472.84;6121865;23;20637;-74
2022/12/21 03:41:11;;;;;;;73.38;33.55;;;;;;;2.33;81.41;100460.88;6120382;23;20093;-75
2022/12/21 03:43:39;;;;;;;74.35;31.83;;;;;;;2.31;80.78;100465.47;6124153;23;20527;-76
2022/12/21 03:46:14;;;;;;;75.68;32.22;;;;;;;2.33;81.38;100460.88;6122180;23;20014;-76
2022/12/21 03:48:55;;;;;;;71.13;32.28;;;;;;;2.36;80.93;100463.31;6123007;23;20049;-74
2022/12/21 03:51:35;;;;;;;73.60;33.30;;;;;;;2.42;81.25;100457.56;6124068;23;20081;-73
2022/12/21 03:54:10;;;;;;;85.25;33.05;;;;;;;2.38;80.84;100458.75;6123906;23;20498;-75
2022/12/21 03:56:39;;;;;;;73.70;32.38;;;;;;;2.20;81.20;100457.47;6130853;23;20113;-76
2022/12/21 03:59:09;;;;;;;71.90;31.60;;;;;;;2.41;80.41;100455.88;6179895;23;20027;-75
2022/12/21 04:01:57;;;;;;;75.40;31.92;;;;;;;2.37;80.35;100446.50;6177465;23;20031;-74
2022/12/21 04:04:37;;;;;;;75.70;32.03;;;;;;;2.38;80.50;100448.16;6183487;23;20031;-69
2022/12/21 04:07:06;;;;;;;78.32;33.17;;;;;;;2.35;80.85;100450.19;6182551;23;20294;-74
2022/12/21 04:09:34;;;;;;;74.30;32.72;;;;;;;2.24;81.20;100453.66;6179776;23;20076;-75
2022/12/21 04:14:51;;;;;;;81.00;33.47;;;;;;;2.30;81.37;100450.53;6182947;23;20016;-74
2022/12/21 04:17:17;;;;;;;74.30;33.90;;;;;;;2.41;81.33;100445.28;6180251;23;20041;-74
2022/12/21 04:19:59;;;;;;;80.82;35.08;;;;;;;2.39;80.87;100441.91;6182392;23;22004;-76
2022/12/21 04:28:07;;;;;;;83.93;33.78;;;;;;;2.29;81.04;100438.25;6181004;23;20019;-74
2022/12/21 04:30:55;;;;;;;75.60;33.33;;;;;;;2.27;81.19;100440.19;6181375;23;20450;-73
2022/12/21 04:33:23;;;;;;;82.22;35.15;;;;;;;2.45;81.10;100437.13;6180211;23;20031;-74
2022/12/21 04:38:38;;;;;;;82.45;35.63;;;;;;;2.33;81.70;100436.22;6181867;23;20027;-74
2022/12/21 04:41:05;;;;;;;79.18;33.97;;;;;;;2.22;81.97;100441.47;6182241;23;20349;-74
2022/12/21 04:43:35;;;;;;;84.28;35.95;;;;;;;2.46;81.64;100439.66;6182114;23;20029;-74
2022/12/21 04:46:07;;;;;;;85.63;36.88;;;;;;;2.29;81.45;100432.97;6182175;23;20047;-75
2022/12/21 04:48:33;;;;;;;;;;;;;;;2.30;81.86;100431.16;6181146;23;20096;-75
2022/12/21 04:51:06;;;;;;;94.80;35.72;;;;;;;2.33;81.98;100429.13;6181453;23;19916;-74
2022/12/21 04:53:33;;;;;;;82.38;36.33;;;;;;;2.38;81.88;100426.16;6181433;23;20025;-73
2022/12/21 04:55:59;;;;;;;89.22;35.95;;;;;;;2.25;82.36;100428.84;6157044;23;20092;-74
2022/12/21 04:58:26;;;;;;;97.85;39.75;;;;;;;2.24;82.03;100431.63;6178752;23;20025;-73
2022/12/21 05:00:52;;;;;;;86.35;38.03;;;;;;;2.28;81.81;100417.19;6182768;23;20079;-75
2022/12/21 05:03:19;;;;;;;91.93;37.60;;;;;;;2.34;81.96;100427.31;6181283;23;20446;-76
2022/12/21 05:05:46;;;;;;;93.43;38.10;;;;;;;2.35;81.94;100424.56;6179145;23;20025;-74
2022/12/21 05:08:13;;;;;;;94.70;40.17;;;;;;;2.51;81.49;100428.69;6180165;23;20023;-75
2022/12/21 05:10:47;;;;;;;95.40;39.97;;;;;;;2.42;82.11;100422.31;6182276;23;20324;-75
2022/12/21 05:13:13;;;;;;;98.93;40.75;;;;;;;2.63;81.52;100428.63;6180617;23;20040;-74
2022/12/21 05:15:40;;;;;;;91.47;37.38;;;;;;;2.28;82.49;100436.56;6181450;23;20024;-74
2022/12/21 05:18:06;;;;;;;98.00;39.13;;;;;;;2.44;81.93;100428.31;6180770;23;20096;-75
2022/12/21 05:20:33;;;;;;;95.13;40.70;;;;;;;2.53;82.31;100432.09;6181398;23;20017;-73
2022/12/21 05:22:59;;;;;;;94.68;39.72;;;;;;;2.57;81.94;100428.25;6182905;23;20100;-74
2022/12/21 05:25:26;;;;;;;96.22;39.42;;;;;;;2.28;82.87;100427.78;6182971;23;20024;-71
2022/12/21 05:27:53;;;;;;;96.80;40.92;;;;;;;2.49;82.63;100426.19;6183612;23;20025;-74
2022/12/21 05:30:19;;;;;;;95.85;39.08;;;;;;;2.48;82.71;100423.63;6184317;23;20064;-73
2022/12/21 05:32:46;;;;;;;94.45;39.60;;;;;;;2.35;82.80;100419.28;6181519;23;20084;-75
2022/12/21 05:35:13;;;;;;;94.72;40.00;;;;;;;2.60;82.53;100422.72;6158298;23;20096;-75
2022/12/21 05:37:42;;;;;;;104.30;42.90;;;;;;;2.55;82.00;100420.44;6183878;23;20025;-73
2022/12/21 05:40:09;;;;;;;103.95;41.63;;;;;;;2.57;82.16;100425.59;6184977;23;20446;-75
2022/12/21 05:42:35;;;;;;;98.70;39.75;;;;;;;2.61;82.63;100421.75;6183558;23;20028;-75
2022/12/21 05:45:02;;;;;;;95.00;42.15;;;;;;;2.50;82.98;100424.38;6183900;23;20327;-73
2022/12/21 05:47:28;;;;;;;93.18;40.72;;;;;;;2.54;83.25;100428.47;6184052;23;20095;-74
2022/12/21 05:49:55;;;;;;;95.80;42.95;;;;;;;2.54;83.14;100428.47;6183644;23;20021;-75
2022/12/21 05:52:21;;;;;;;100.15;43.08;;;;;;;2.49;82.85;100426.19;6184030;23;20350;-75
2022/12/21 05:54:48;;;;;;;101.30;43.05;;;;;;;2.51;82.73;100423.41;6183524;23;20031;-73
2022/12/21 05:57:14;;;;;;;107.05;43.85;;;;;;;2.64;82.81;100432.13;6182851;23;20020;-75
2022/12/21 05:59:41;;;;;;;105.93;45.35;;;;;;;2.58;83.46;100421.97;6182778;23;20407;-73
2022/12/21 06:02:07;;;;;;;109.97;44.78;;;;;;;2.62;83.27;100426.94;6182744;23;20025;-75
2022/12/21 06:04:34;;;;;;;110.80;42.17;;;;;;;2.62;82.99;100432.25;6183507;23;20038;-74
2022/12/21 06:07:00;;;;;;;105.97;43.80;;;;;;;2.60;83.73;100433.31;6183433;23;20013;-74
2022/12/21 06:09:27;;;;;;;115.55;46.38;;;;;;;2.64;83.19;100429.47;6183049;23;20021;-73
2022/12/21 06:11:53;;;;;;;111.70;45.92;;;;;;;2.70;83.10;100430.81;6184299;23;20021;-73
2022/12/21 06:14:20;;;;;;;117.00;46.20;;;;;;;2.78;82.71;100426.59;6182924;23;20354;-73
2022/12/21 06:16:46;;;;;;;109.40;45.88;;;;;;;2.70;83.24;100423.72;6182903;23;20028;-75
2022/12/21 06:19:13;;;;;;;116.95;47.97;;;;;;;2.81;82.38;100426.38;6183324;23;20021;-74
2022/12/21 06:21:39;;;;;;;109.85;47.72;;;;;;;2.79;83.03;100430.97;6181387;23;20488;-74
2022/12/21 06:24:06;;;;;;;109.05;45.72;;;;;;;2.86;83.19;100432.19;6180954;23;20056;-75
2022/12/21 06:26:34;;;;;;;106.47;45.63;;;;;;;2.68;83.61;100430.91;6182853;23;20024;-73
2022/12/21 06:29:00;;;;;;;116.72;47.70;;;;;;;2.88;83.52;100427.59;6183058;23;20027;-74
2022/12/21 06:31:27;;;;;;;106.05;46.30;;;;;;;2.83;83.02;100440.38;6183768;23;20060;-75
2022/12/21 06:33:54;;;;;;;114.55;46.38;;;;;;;2.83;83.46;100443.00;6181672;23;20029;-74
2022/12/21 06:36:21;;;;;;;107.00;46.35;;;;;;;2.92;83.26;100438.81;6183836;23;20052;-73
2022/12/21 06:38:48;;;;;;;115.78;47.75;;;;;;;3.05;82.84;100439.56;6184604;23;20032;-79
2022/12/21 06:41:16;;;;;;;109.53;45.60;;;;;;;2.97;82.24;100435.81;6185095;23;20063;-79
2022/12/21 06:43:44;;;;;;;110.55;46.55;;;;;;;3.07;82.72;100439.44;6186054;23;20033;-79
2022/12/21 06:46:12;;;;;;;115.40;47.30;;;;;;;3.07;82.86;100435.00;6178071;23;20473;-78
2022/12/21 06:48:40;;;;;;;105.47;45.03;;;;;;;3.04;82.88;100445.81;6185272;23;20044;-78
2022/12/21 06:51:16;;;;;;;107.18;46.63;;;;;;;3.08;82.94;100434.00;6186588;23;20096;-78
2022/12/21 06:53:44;;;;;;;112.40;45.47;;;;;;;3.18;82.68;100439.44;6185933;23;20109;-78
2022/12/21 06:56:14;;;;;;;114.20;46.00;;;;;;;3.08;82.87;100438.47;6185213;23;20067;-78
2022/12/21 06:58:47;;;;;;;110.00;48.17;;;;;;;3.06;83.36;100441.22;6182605;23;20127;-77
2022/12/21 07:01:20;;;;;;;116.97;48.33;;;;;;;3.23;82.73;100434.63;6184294;23;20095;-78
2022/12/21 07:03:47;;;;;;;104.53;46.17;;;;;;;3.15;82.87;100434.38;6183833;23;20080;-78
2022/12/21 07:06:16;;;;;;;109.75;47.55;;;;;;;3.15;82.50;100435.22;6183968;23;20043;-78
2022/12/21 07:08:43;;;;;;;112.95;46.53;;;;;;;3.11;82.33;100446.19;6183844;23;20020;-77
2022/12/21 07:11:12;;;;;;;110.53;46.92;;;;;;;3.22;82.97;100438.25;6182106;23;20029;-77
2022/12/21 07:13:42;;;;;;;106.25;46.40;;;;;;;3.17;82.63;100440.44;6184805;23;20049;-77
2022/12/21 07:16:10;;;;;;;105.95;45.97;;;;;;;3.16;82.62;100436.06;6170613;23;20327;-78
2022/12/21 07:18:37;;;;;;;107.60;46.95;;;;;;;3.21;82.86;100433.06;6181893;23;20149;-78
2022/12/21 07:21:06;;;;;;;103.70;45.92;;;;;;;3.17;82.25;100436.91;6184072;23;20019;-77
2022/12/21 07:23:36;;;;;;;107.82;45.92;;;;;;;3.15;83.05;100434.38;6183759;23;20073;-77
2022/12/21 07:26:07;;;;;;;108.65;47.97;;;;;;;3.29;83.30;100436.81;6170442;23;20025;-78
2022/12/21 07:28:35;;;;;;;102.40;44.88;;;;;;;3.31;82.98;100439.34;6180938;23;20025;-78
2022/12/21 07:31:07;;;;;;;110.22;49.22;;;;;;;3.29;83.07;100434.16;6183480;23;20088;-77
2022/12/21 07:33:35;;;;;;;119.05;46.38;;;;;;;3.35;82.22;100443.44;6182539;23;20021;-78
2022/12/21 07:36:03;;;;;;;110.85;46.42;;;;;;;3.30;82.58;100441.13;6183005;23;20100;-78
2022/12/21 07:38:32;;;;;;;106.50;49.05;;;;;;;3.55;82.02;100445.38;6182257;23;20021;-77
2022/12/21 07:41:00;;;;;;;104.18;45.33;;;;;;;3.56;81.63;100443.56;6184858;23;20013;-77
2022/12/21 07:43:28;;;;;;;96.63;46.88;;;;;;;3.54;81.77;100448.97;6155632;23;20470;-77
2022/12/21 07:45:55;;;;;;;102.68;47.38;;;;;;;3.43;82.60;100437.53;6182367;23;20027;-77
2022/12/21 07:48:22;;;;;;;91.82;45.55;;;;;;;3.42;82.49;100449.94;6168663;23;20099;-77
2022/12/21 07:50:56;;;;;;;110.43;46.50;;;;;;;3.42;82.41;100435.84;6182867;23;20013;-77
2022/12/21 07:53:23;;;;;;;102.40;47.28;;;;;;;3.38;82.59;100445.84;6182406;23;20021;-77
2022/12/21 07:55:50;;;;;;;107.30;47.10;;;;;;;3.32;82.62;100451.63;6182118;23;20033;-77
2022/12/21 07:58:16;;;;;;;100.82;46.90;;;;;;;3.43;82.67;100454.28;6181299;23;20017;-76
2022/12/21 08:00:43;;;;;;;90.63;46.03;;;;;;;3.42;82.16;100457.91;6182662;23;20399;-77
2022/12/21 08:03:09;;;;;;;102.82;46.20;;;;;;;3.24;82.91;100462.84;6182096;23;20017;-77
2022/12/21 08:05:36;;;;;;;92.68;44.67;;;;;;;3.46;82.35;100461.16;6182526;23;20024;-77
2022/12/21 08:08:03;;;;;;;99.80;46.00;;;;;;;3.54;82.50;100474.66;6182839;23;20024;-76
2022/12/21 08:10:30;;;;;;;100.85;47.70;;;;;;;3.65;82.16;100465.84;6182671;23;20017;-74
2022/12/21 08:12:56;;;;;;;97.47;44.22;;;;;;;3.60;81.57;100468.88;6183479;23;20097;-77
2022/12/21 08:15:23;;;;;;;96.30;43.20;;;;;;;3.33;82.67;100467.41;6183117;23;20028;-77
2022/12/21 08:17:53;;;;;;;94.03;44.75;;;;;;;3.59;82.60;100467.19;6181057;23;20029;-77
2022/12/21 08:20:20;;;;;;;91.72;44.00;;;;;;;3.53;82.62;100465.84;6181667;23;20039;-77
2022/12/21 08:22:47;;;;;;;100.70;45.60;;;;;;;3.53;82.53;100483.56;6182574;23;20092;-77
2022/12/21 08:25:14;;;;;;;103.55;46.08;;;;;;;3.43;82.37;100480.78;6181788;23;20041;-77
2022/12/21 08:27:41;;;;;;;96.22;44.55;;;;;;;3.39;82.85;100476.69;6181598;23;20488;-77
2022/12/21 08:30:08;;;;;;;96.40;43.88;;;;;;;3.65;82.22;100477.28;6180738;23;20017;-76
2022/12/21 08:32:35;;;;;;;94.43;44.60;;;;;;;3.53;83.04;100487.06;6154730;23;20017;-76
2022/12/21 08:35:02;;;;;;;94.10;46.13;;;;;;;3.51;82.66;100488.97;6180427;23;20100;-76
2022/12/21 08:37:28;;;;;;;100.57;46.72;;;;;;;3.49;82.97;100487.44;6181387;23;20016;-76
2022/12/21 08:39:55;;;;;;;97.65;44.97;;;;;;;3.66;82.39;100486.97;6181209;23;20025;-76
2022/12/21 08:42:21;;;;;;;98.20;46.38;;;;;;;3.62;82.51;100488.16;6180045;23;20346;-76
2022/12/21 08:44:48;;;;;;;101.30;43.97;;;;;;;3.40;82.52;100486.34;6180954;23;20045;-76
2022/12/21 08:47:15;;;;;;;102.03;47.25;;;;;;;3.64;82.66;100478.25;6181220;23;20451;-77
2022/12/21 08:49:41;;;;;;;102.43;47.30;;;;;;;3.67;82.53;100467.41;6180254;23;20381;-77
2022/12/21 08:52:08;;;;;;;88.63;42.45;;;;;;;3.45;82.73;100470.06;6167731;23;20028;-76
2022/12/21 08:54:35;;;;;;;97.03;46.08;;;;;;;3.53;83.06;100475.63;6180451;23;20027;-76
2022/12/21 08:57:02;;;;;;;101.32;44.80;;;;;;;3.63;83.22;100474.78;6180727;23;20021;-76
2022/12/21 08:59:28;;;;;;;96.50;44.22;;;;;;;3.72;82.62;100472.34;6182113;23;20025;-76
2022/12/21 09:01:55;;;;;;;91.47;44.83;;;;;;;3.78;82.42;100475.34;6180379;23;20345;-76
2022/12/21 09:04:22;;;;;;;89.00;43.85;;;;;;;3.69;82.74;100484.06;6180381;23;20017;-76
2022/12/21 09:06:48;;;;;;;94.85;44.65;;;;;;;3.79;82.59;100481.50;6181414;23;20401;-77
2022/12/21 09:09:15;;;;;;;97.75;44.63;;;;;;;3.80;82.95;100475.25;6181861;23;20161;-77
2022/12/21 09:11:41;;;;;;;91.78;43.88;;;;;;;3.89;82.43;100481.63;6180942;23;20024;-77
2022/12/21 09:14:19;;;;;;;92.03;43.97;;;;;;;3.89;82.41;100476.31;6181263;23;20017;-76
2022/12/21 09:16:46;;;;;;;92.60;43.45;;;;;;;3.89;82.48;100473.66;6181312;23;20045;-76
2022/12/21 09:19:13;;;;;;;85.78;43.22;;;;;;;3.92;82.04;100489.34;6179844;23;20017;-76
2022/12/21 09:21:40;;;;;;;83.72;42.53;;;;;;;3.99;82.24;100486.06;6181833;23;20370;-77
2022/12/21 09:24:07;;;;;;;85.75;42.35;;;;;;;3.99;82.28;100474.59;6180505;23;20063;-77
2022/12/21 09:26:34;;;;;;;80.10;41.35;;;;;;;4.17;81.61;100474.91;6181692;23;20096;-77
2022/12/21 09:29:00;;;;;;;83.10;40.60;;;;;;;3.98;82.18;100472.94;6181983;23;20079;-76
2022/12/21 09:31:27;;;;;;;83.57;41.65;;;;;;;3.90;82.78;100465.59;6179904;23;20025;-77
2022/12/21 09:33:56;;;;;;;78.55;41.20;;;;;;;3.99;82.47;100477.25;6180485;23;20017;-77
2022/12/21 09:36:25;;;;;;;82.85;42.33;;;;;;;4.06;82.05;100471.31;6181058;23;20021;-77
2022/12/21 09:38:53;;;;;;;86.30;42.05;;;;;;;4.00;82.37;100482.47;6179264;23;20079;-77
2022/12/21 09:41:38;;;;;;;80.85;42.45;;;;;;;4.09;82.67;100472.88;6181034;23;20029;-77
2022/12/21 09:44:13;;;;;;;83.90;42.10;;;;;;;4.18;82.06;100477.47;6180404;23;20045;-77
2022/12/21 09:46:42;;;;;;;84.43;41.38;;;;;;;4.12;82.42;100477.97;6181083;23;20180;-77
2022/12/21 09:49:18;;;;;;;82.20;41.97;;;;;;;4.13;82.03;100484.09;6180258;23;20017;-77
2022/12/21 09:51:57;;;;;;;87.45;42.50;;;;;;;4.21;81.62;100479.88;6180406;23;20032;-77
2022/12/21 09:54:57;;;;;;;80.57;41.05;;;;;;;4.13;81.95;100478.78;6180312;23;20071;-76
2022/12/21 09:57:30;;;;;;;85.22;42.83;;;;;;;4.10;82.20;100477.22;6178587;23;20017;-76
2022/12/21 09:59:57;;;;;;;81.10;40.40;;;;;;;4.19;82.58;100475.66;6180787;23;20021;-76
2022/12/21 10:02:33;;;;;;;73.78;40.03;;;;;;;4.10;82.00;100479.88;6180264;23;20032;-76
2022/12/21 10:05:39;;;;;;;75.38;40.15;;;;;;;3.98;82.50;100472.94;6180428;23;20095;-76
2022/12/21 10:08:20;;;;;;;76.25;40.17;;;;;;;4.14;82.47;100468.06;6180371;23;20096;-76
2022/12/21 10:10:50;;;;;;;75.78;39.88;;;;;;;4.16;82.57;100471.44;6179938;23;20087;-77
2022/12/21 10:13:43;;;;;;;77.78;40.03;;;;;;;4.15;81.96;100467.09;6180346;23;20084;-77
2022/12/21 10:16:43;;;;;;;75.35;39.25;;;;;;;4.27;82.39;100466.06;6181890;23;20184;-77
2022/12/21 10:19:46;;;;;;;74.15;40.13;;;;;;;4.30;82.00;100471.13;6180773;23;20033;-77
2022/12/21 10:22:45;;;;;;;80.22;41.00;;;;;;;4.36;82.00;100463.66;6182572;23;20017;-77
2022/12/21 10:25:20;;;;;;;79.05;41.25;;;;;;;4.30;81.76;100465.81;6181332;23;20100;-77
2022/12/21 10:28:09;;;;;;;80.07;40.33;;;;;;;4.57;81.16;100454.75;6182107;23;20092;-76
2022/12/21 10:30:38;;;;;;;82.35;40.00;;;;;;;4.74;80.56;100466.66;6168888;23;20024;-76
2022/12/21 10:33:11;;;;;;;70.80;40.22;;;;;;;4.77;80.14;100458.41;6183922;23;20100;-76
2022/12/21 10:35:39;;;;;;;72.88;39.10;;;;;;;4.68;81.02;100458.34;6183151;23;20465;-76
2022/12/21 10:38:14;;;;;;;74.82;38.53;;;;;;;4.60;80.77;100453.69;6184008;23;20048;-76
2022/12/21 10:40:47;;;;;;;65.85;37.90;;;;;;;4.62;80.95;100446.41;6182833;23;20021;-76
2022/12/21 10:43:14;;;;;;;74.15;39.03;;;;;;;4.52;81.12;100449.00;6182845;23;20021;-76
2022/12/21 10:45:40;;;;;;;70.55;38.38;;;;;;;4.67;81.32;100446.88;6182840;23;20350;-76
2022/12/21 10:48:07;;;;;;;69.75;37.92;;;;;;;4.68;80.56;100450.38;6182393;23;20096;-77
2022/12/21 10:50:40;;;;;;;72.07;38.50;;;;;;;4.75;80.74;100444.41;6183318;23;20071;-76
2022/12/21 10:53:25;;;;;;;68.93;38.20;;;;;;;4.79;80.63;100448.47;6182450;23;20025;-76
2022/12/21 10:55:56;;;;;;;69.88;37.35;;;;;;;4.72;80.12;100449.13;6182567;23;20031;-76
2022/12/21 10:58:28;;;;;;;56.97;29.47;;;;;;;4.67;80.75;100443.38;6179582;23;20033;-76
2022/12/21 11:01:03;;;;;;;64.25;36.30;;;;;;;4.85;80.39;100433.84;6179456;23;20100;-76
2022/12/21 11:03:39;;;;;;;70.32;37.42;;;;;;;4.95;80.36;100439.22;6182571;23;20095;-76
2022/12/21 11:06:17;;;;;;;64.47;37.97;;;;;;;4.71;80.99;100436.81;6182392;23;20017;-76
2022/12/21 11:08:45;;;;;;;70.88;38.20;;;;;;;4.58;81.26;100434.34;6181492;23;20124;-76
2022/12/21 11:11:30;;;;;;;69.20;39.30;;;;;;;4.81;81.03;100427.94;6156002;23;20576;-76
2022/12/21 11:14:03;;;;;;;70.60;39.78;;;;;;;4.56;81.37;100423.03;6182026;23;20129;-77
2022/12/21 11:16:35;;;;;;;72.53;38.50;;;;;;;4.69;81.57;100422.81;6165983;23;20025;-77
2022/12/21 11:19:03;;;;;;;71.72;40.25;;;;;;;4.72;81.55;100422.56;6180698;23;20044;-77
2022/12/21 11:21:32;;;;;;;70.60;38.45;;;;;;;4.58;81.74;100426.38;6182664;23;20024;-76
2022/12/21 11:24:05;;;;;;;72.70;38.58;;;;;;;4.79;81.30;100424.56;6181874;23;20021;-76
2022/12/21 11:26:38;;;;;;;70.68;37.00;;;;;;;4.72;81.52;100428.72;6182847;23;20025;-77
2022/12/21 11:29:11;;;;;;;66.95;38.80;;;;;;;4.73;81.58;100419.78;6181558;23;20023;-76
2022/12/21 11:31:38;;;;;;;67.38;37.65;;;;;;;4.87;81.24;100413.31;6181300;23;20481;-76
2022/12/21 11:34:38;;;;;;;65.53;36.67;;;;;;;4.89;80.84;100415.81;6181417;23;20024;-74
2022/12/21 11:37:27;;;;;;;67.82;37.97;;;;;;;4.95;80.79;100408.16;6180625;23;20031;-75
2022/12/21 11:40:06;;;;;;;69.05;38.47;;;;;;;4.92;80.75;100400.44;6166627;23;20032;-74
2022/12/21 11:42:33;;;;;;;62.47;35.85;;;;;;;4.97;80.70;100397.38;6181771;23;20427;-75
2022/12/21 11:45:25;;;;;;;60.90;36.38;;;;;;;4.81;81.29;100401.38;6179613;23;20360;-76
2022/12/21 11:48:27;;;;;;;69.85;38.15;;;;;;;4.96;80.97;100409.84;6180402;23;20092;-76
2022/12/21 11:51:05;;;;;;;72.18;39.40;;;;;;;4.90;81.42;100402.41;6181618;23;20036;-75
2022/12/21 11:53:58;;;;;;;66.55;37.13;;;;;;;5.06;80.85;100399.25;6180482;23;20025;-76
2022/12/21 11:56:49;;;;;;;68.15;38.05;;;;;;;5.03;80.92;100404.84;6180739;23;20451;-75